Decoded Metar for RKJK (KUNSAN in KOREA) (IATA:KUB) | Meteo·Mobile Aviation Weather
aviador You're here:

RKJK Decoded Metar

KUNSAN in KOREA
Report Time2018-09-24 06:56:00
UTC Time2018-09-24 07:42:10
Flight Rules vfr VFR
Wind330° at 15 Gusting to 19 kt
W.Decomp.*RWY 36: 13.8 kt HW 5.9 kt LCW
W.Rank330° ranks 1
Current wind is above 330° avg. (9.5)
Visibility9999 m
Phenomena:N/A
Clouds:N/A
Expected CloudBase > 5,200 ft AGL from Temp-Dew spread
CeilingNone
Temp23°C (ISA +8)
Dew Point10°C (44% RH)
AAT17.7°C
QNH1018 hPa
Density Alt965 ft
Elevation30 ft
Report Wrong Elevation
Raw Report
RKJK 240656Z AUTO 33015G19KT 10SM CLR 23/10 A3006 RMK AO2 SLP183
T02290100 FZRANO $=

Extra information for RKJK:More info

Metar Taf Metar & Taf Last 4 Metars F.Rules Stats Wind Profile Meteogram Temp Stats Airport Information Weather charts Add Link Nearby VenuesMetar ALERT Operation Metar Decoded Social comments